Time,TemperatureF,DewpointF,PressureIn,WindDirection,WindDirectionDegrees,WindSpeedMPH,WindSpeedGustMPH,Humidity,HourlyPrecipIn,Conditions,Clouds,dailyrainin,SoftwareType,DateUTC
2013-05-29 00:11:00,71.9,67.0,29.84,South,180,13.0,15.0,84,0.00,,,0.00,weatherlink.com 1.10,2013-05-29 05:11:00,
2013-05-29 00:27:00,71.9,67.0,29.84,SSW,198,11.0,14.0,84,0.00,,,0.00,weatherlink.com 1.10,2013-05-29 05:27:00,
2013-05-29 00:42:00,71.8,67.0,29.83,South,186,6.0,14.0,84,0.00,,,0.00,weatherlink.com 1.10,2013-05-29 05:42:00,
2013-05-29 00:57:00,70.9,66.0,29.86,WSW,251,16.0,17.0,85,0.05,,,0.05,weatherlink.com 1.10,2013-05-29 05:57:00,
2013-05-29 01:12:00,65.6,64.0,29.86,WSW,257,12.0,16.0,93,0.34,,,0.34,weatherlink.com 1.10,2013-05-29 06:12:00,
2013-05-29 01:28:00,65.2,64.0,29.87,WNW,290,5.0,8.0,94,0.35,,,0.35,weatherlink.com 1.10,2013-05-29 06:28:00,
2013-05-29 01:42:00,65.5,64.0,29.87,WNW,294,0.0,5.0,95,0.35,,,0.35,weatherlink.com 1.10,2013-05-29 06:42:00,
2013-05-29 01:57:00,65.4,64.0,29.86,WNW,294,1.0,3.0,95,0.29,,,0.35,weatherlink.com 1.10,2013-05-29 06:57:00,
2013-05-29 02:12:00,65.3,64.0,29.85,WSW,240,3.0,5.0,95,0.01,,,0.35,weatherlink.com 1.10,2013-05-29 07:12:00,
2013-05-29 02:27:00,65.0,64.0,29.85,SSW,208,6.0,7.0,96,0.00,,,0.35,weatherlink.com 1.10,2013-05-29 07:27:00,
2013-05-29 02:42:00,65.0,64.0,29.84,SSE,168,0.0,9.0,95,0.02,,,0.37,weatherlink.com 1.10,2013-05-29 07:42:00,
2013-05-29 02:57:00,65.1,64.0,29.84,South,184,9.0,18.0,95,0.02,,,0.37,weatherlink.com 1.10,2013-05-29 07:57:00,
2013-05-29 03:12:00,65.5,64.0,29.85,South,176,9.0,16.0,93,0.02,,,0.37,weatherlink.com 1.10,2013-05-29 08:12:00,
2013-05-29 03:27:00,64.7,63.0,29.85,South,188,13.0,17.0,94,0.02,,,0.37,weatherlink.com 1.10,2013-05-29 08:27:00,
2013-05-29 03:42:00,64.3,62.0,29.86,South,186,12.0,19.0,93,0.01,,,0.38,weatherlink.com 1.10,2013-05-29 08:42:00,
2013-05-29 03:57:00,63.9,62.0,29.86,SSW,208,8.0,11.0,92,0.01,,,0.38,weatherlink.com 1.10,2013-05-29 08:57:00,
2013-05-29 04:12:00,63.9,62.0,29.87,SSW,194,5.0,14.0,92,0.01,,,0.38,weatherlink.com 1.10,2013-05-29 09:12:00,
2013-05-29 04:27:00,63.7,61.0,29.88,SSW,206,7.0,12.0,91,0.01,,,0.38,weatherlink.com 1.10,2013-05-29 09:27:00,
2013-05-29 04:42:00,63.8,61.0,29.88,SSW,194,11.0,14.0,90,0.00,,,0.38,weatherlink.com 1.10,2013-05-29 09:42:00,
2013-05-29 04:57:00,64.4,61.0,29.88,SSW,210,7.0,13.0,88,0.00,,,0.38,weatherlink.com 1.10,2013-05-29 09:57:00,
2013-05-29 05:12:00,64.5,61.0,29.94,West,278,12.0,22.0,88,0.00,,,0.38,weatherlink.com 1.10,2013-05-29 10:12:00,
2013-05-29 05:27:00,65.1,61.0,29.93,WSW,244,4.0,19.0,86,0.00,,,0.38,weatherlink.com 1.10,2013-05-29 10:27:00,
2013-05-29 05:42:00,64.7,61.0,29.92,SW,234,4.0,11.0,87,0.00,,,0.38,weatherlink.com 1.10,2013-05-29 10:42:00,
2013-05-29 05:57:00,64.3,61.0,29.90,WSW,252,2.0,7.0,88,0.00,,,0.38,weatherlink.com 1.10,2013-05-29 10:57:00,
2013-05-29 06:12:00,64.0,61.0,29.90,SW,218,5.0,6.0,89,0.00,,,0.38,weatherlink.com 1.10,2013-05-29 11:12:00,
2013-05-29 06:27:00,63.8,61.0,29.90,South,177,4.0,9.0,90,0.00,,,0.38,weatherlink.com 1.10,2013-05-29 11:27:00,
2013-05-29 06:42:00,64.2,61.0,29.90,South,181,5.0,11.0,90,0.00,,,0.38,weatherlink.com 1.10,2013-05-29 11:42:00,
2013-05-29 06:57:00,65.2,61.0,29.90,SSE,160,8.0,12.0,87,0.00,,,0.38,weatherlink.com 1.10,2013-05-29 11:57:00,
2013-05-29 07:12:00,65.8,62.0,29.88,South,175,8.0,15.0,87,0.00,,,0.38,weatherlink.com 1.10,2013-05-29 12:12:00,
2013-05-29 07:27:00,67.1,63.0,29.88,SSE,164,8.0,11.0,85,0.00,,,0.38,weatherlink.com 1.10,2013-05-29 12:27:00,
2013-05-29 07:42:00,68.7,63.0,29.90,South,177,10.0,11.0,82,0.00,,,0.38,weatherlink.com 1.10,2013-05-29 12:42:00,
2013-05-29 07:57:00,69.7,63.0,29.90,South,179,6.0,11.0,80,0.00,,,0.38,weatherlink.com 1.10,2013-05-29 12:57:00,
2013-05-29 08:12:00,71.0,63.0,29.91,SSW,192,8.0,15.0,76,0.00,,,0.38,weatherlink.com 1.10,2013-05-29 13:12:00,
2013-05-29 08:27:00,71.8,64.0,29.91,South,186,10.0,18.0,75,0.00,,,0.38,weatherlink.com 1.10,2013-05-29 13:27:00,
2013-05-29 08:42:00,72.4,64.0,29.91,SSW,207,10.0,22.0,76,0.00,,,0.38,weatherlink.com 1.10,2013-05-29 13:42:00,
2013-05-29 08:57:00,73.2,66.0,29.91,SSW,199,15.0,19.0,77,0.00,,,0.38,weatherlink.com 1.10,2013-05-29 13:57:00,
2013-05-29 09:12:00,73.7,66.0,29.91,SSW,193,15.0,20.0,78,0.00,,,0.38,weatherlink.com 1.10,2013-05-29 14:12:00,
2013-05-29 09:27:00,74.8,67.0,29.91,SSW,200,14.0,22.0,77,0.00,,,0.38,weatherlink.com 1.10,2013-05-29 14:27:00,
2013-05-29 09:42:00,75.3,67.0,29.91,SW,214,14.0,26.0,76,0.00,,,0.38,weatherlink.com 1.10,2013-05-29 14:42:00,
2013-05-29 09:57:00,76.2,68.0,29.91,SSW,213,18.0,23.0,75,0.00,,,0.38,weatherlink.com 1.10,2013-05-29 14:57:00,
2013-05-29 10:12:00,76.7,69.0,29.91,SW,232,16.0,23.0,76,0.00,,,0.38,weatherlink.com 1.10,2013-05-29 15:12:00,
2013-05-29 10:27:00,77.0,69.0,29.91,SW,217,13.0,25.0,75,0.00,,,0.38,weatherlink.com 1.10,2013-05-29 15:27:00,
2013-05-29 10:42:00,77.8,69.0,29.92,SW,220,18.0,22.0,75,0.00,,,0.38,weatherlink.com 1.10,2013-05-29 15:42:00,
2013-05-29 10:58:00,78.4,69.0,29.92,SW,226,16.0,25.0,73,0.00,,,0.38,weatherlink.com 1.10,2013-05-29 15:58:00,
2013-05-29 11:13:00,78.8,69.0,29.91,SW,219,15.0,25.0,73,0.00,,,0.38,weatherlink.com 1.10,2013-05-29 16:13:00,
2013-05-29 11:28:00,79.0,69.0,29.91,SW,221,16.0,24.0,72,0.00,,,0.38,weatherlink.com 1.10,2013-05-29 16:28:00,
2013-05-29 11:43:00,79.4,70.0,29.91,SSW,213,17.0,26.0,72,0.00,,,0.38,weatherlink.com 1.10,2013-05-29 16:43:00,
2013-05-29 11:58:00,80.2,70.0,29.92,SW,231,16.0,24.0,71,0.00,,,0.38,weatherlink.com 1.10,2013-05-29 16:58:00,
2013-05-29 12:13:00,80.0,70.0,29.92,SW,217,14.0,24.0,71,0.00,,,0.38,weatherlink.com 1.10,2013-05-29 17:13:00,
2013-05-29 12:28:00,80.6,70.0,29.92,SSW,209,18.0,23.0,70,0.00,,,0.38,weatherlink.com 1.10,2013-05-29 17:28:00,
2013-05-29 12:43:00,81.2,71.0,29.91,SSW,211,10.0,18.0,71,0.00,,,0.38,weatherlink.com 1.10,2013-05-29 17:43:00,
2013-05-29 12:58:00,81.3,70.0,29.91,SW,217,11.0,18.0,68,0.00,,,0.38,weatherlink.com 1.10,2013-05-29 17:58:00,
2013-05-29 13:13:00,81.6,70.0,29.91,SW,236,17.0,24.0,67,0.00,,,0.38,weatherlink.com 1.10,2013-05-29 18:13:00,
2013-05-29 13:28:00,81.5,70.0,29.91,SW,223,15.0,22.0,68,0.00,,,0.38,weatherlink.com 1.10,2013-05-29 18:28:00,
2013-05-29 13:43:00,81.9,70.0,29.91,SSW,213,20.0,24.0,68,0.00,,,0.38,weatherlink.com 1.10,2013-05-29 18:43:00,
2013-05-29 13:58:00,82.2,69.0,29.90,SSW,202,12.0,20.0,65,0.00,,,0.38,weatherlink.com 1.10,2013-05-29 18:58:00,
2013-05-29 14:13:00,81.8,68.0,29.90,SSW,208,11.0,22.0,64,0.00,,,0.38,weatherlink.com 1.10,2013-05-29 19:13:00,
2013-05-29 14:28:00,81.2,69.0,29.89,South,187,6.0,21.0,66,0.00,,,0.38,weatherlink.com 1.10,2013-05-29 19:28:00,
2013-05-29 14:43:00,82.9,68.0,29.89,SSW,205,11.0,20.0,62,0.00,,,0.38,weatherlink.com 1.10,2013-05-29 19:43:00,
2013-05-29 14:58:00,83.4,69.0,29.89,SSE,161,14.0,20.0,62,0.00,,,0.38,weatherlink.com 1.10,2013-05-29 19:58:00,
2013-05-29 15:13:00,83.0,69.0,29.89,South,169,12.0,22.0,62,0.00,,,0.38,weatherlink.com 1.10,2013-05-29 20:13:00,
2013-05-29 15:28:00,83.6,68.0,29.88,SSW,194,9.0,22.0,60,0.00,,,0.38,weatherlink.com 1.10,2013-05-29 20:28:00,
2013-05-29 15:43:00,83.7,69.0,29.88,South,189,16.0,21.0,61,0.00,,,0.38,weatherlink.com 1.10,2013-05-29 20:43:00,
2013-05-29 15:58:00,83.7,67.0,29.88,SSW,198,7.0,16.0,58,0.00,,,0.38,weatherlink.com 1.10,2013-05-29 20:58:00,
2013-05-29 16:13:00,83.6,67.0,29.87,SSW,198,13.0,22.0,57,0.00,,,0.38,weatherlink.com 1.10,2013-05-29 21:13:00,
2013-05-29 16:28:00,83.5,67.0,29.86,South,180,16.0,23.0,58,0.00,,,0.38,weatherlink.com 1.10,2013-05-29 21:28:00,
2013-05-29 16:43:00,82.9,67.0,29.87,SSW,193,13.0,24.0,58,0.00,,,0.38,weatherlink.com 1.10,2013-05-29 21:43:00,
2013-05-29 16:58:00,82.7,67.0,29.86,South,180,16.0,22.0,59,0.00,,,0.38,weatherlink.com 1.10,2013-05-29 21:58:00,
2013-05-29 17:13:00,82.8,67.0,29.86,SSW,212,10.0,23.0,59,0.00,,,0.38,weatherlink.com 1.10,2013-05-29 22:13:00,
2013-05-29 17:28:00,82.0,67.0,29.85,South,191,14.0,24.0,61,0.00,,,0.38,weatherlink.com 1.10,2013-05-29 22:28:00,
2013-05-29 17:43:00,82.5,68.0,29.85,SSW,193,16.0,23.0,62,0.00,,,0.38,weatherlink.com 1.10,2013-05-29 22:43:00,
2013-05-29 17:58:00,82.0,68.0,29.84,SSW,196,21.0,25.0,62,0.00,,,0.38,weatherlink.com 1.10,2013-05-29 22:58:00,
2013-05-29 18:13:00,81.9,68.0,29.84,South,176,10.0,22.0,63,0.00,,,0.38,weatherlink.com 1.10,2013-05-29 23:13:00,
2013-05-29 18:28:00,81.8,68.0,29.84,SSW,194,7.0,28.0,63,0.00,,,0.38,weatherlink.com 1.10,2013-05-29 23:28:00,
2013-05-29 18:43:00,81.2,68.0,29.85,SSW,200,15.0,22.0,64,0.00,,,0.38,weatherlink.com 1.10,2013-05-29 23:43:00,
2013-05-29 18:58:00,80.9,68.0,29.85,South,183,10.0,18.0,66,0.00,,,0.38,weatherlink.com 1.10,2013-05-29 23:58:00,
2013-05-29 19:13:00,79.9,68.0,29.85,SSE,164,12.0,18.0,68,0.00,,,0.38,weatherlink.com 1.10,2013-05-30 00:13:00,
2013-05-29 19:28:00,79.2,68.0,29.85,South,188,17.0,22.0,68,0.00,,,0.38,weatherlink.com 1.10,2013-05-30 00:28:00,
2013-05-29 19:43:00,78.7,68.0,29.85,South,177,12.0,20.0,69,0.00,,,0.38,weatherlink.com 1.10,2013-05-30 00:43:00,
2013-05-29 19:58:00,78.0,67.0,29.86,South,180,13.0,17.0,69,0.00,,,0.38,weatherlink.com 1.10,2013-05-30 00:58:00,
2013-05-29 20:13:00,77.1,67.0,29.85,SSE,162,9.0,16.0,71,0.00,,,0.38,weatherlink.com 1.10,2013-05-30 01:13:00,
2013-05-29 20:28:00,76.1,67.0,29.84,South,169,7.0,14.0,74,0.00,,,0.38,weatherlink.com 1.10,2013-05-30 01:28:00,
2013-05-29 20:43:00,75.6,67.0,29.84,South,175,7.0,13.0,75,0.00,,,0.38,weatherlink.com 1.10,2013-05-30 01:43:00,
2013-05-29 20:58:00,75.1,67.0,29.85,SSE,164,10.0,14.0,75,0.00,,,0.38,weatherlink.com 1.10,2013-05-30 01:58:00,
2013-05-29 21:13:00,74.9,67.0,29.85,SSE,167,7.0,15.0,75,0.00,,,0.38,weatherlink.com 1.10,2013-05-30 02:13:00,
2013-05-29 21:29:00,74.7,66.0,29.86,South,169,7.0,16.0,74,0.00,,,0.38,weatherlink.com 1.10,2013-05-30 02:29:00,
2013-05-29 21:43:00,74.3,66.0,29.87,SSE,159,8.0,14.0,75,0.00,,,0.38,weatherlink.com 1.10,2013-05-30 02:43:00,
2013-05-29 21:58:00,73.5,66.0,29.87,SSE,155,8.0,12.0,76,0.00,,,0.38,weatherlink.com 1.10,2013-05-30 02:58:00,
2013-05-29 22:13:00,73.1,65.0,29.88,SSE,162,9.0,12.0,76,0.00,,,0.38,weatherlink.com 1.10,2013-05-30 03:13:00,
2013-05-29 22:28:00,73.1,64.0,29.88,South,175,12.0,14.0,74,0.00,,,0.38,weatherlink.com 1.10,2013-05-30 03:28:00,
2013-05-29 22:43:00,73.3,64.0,29.89,SSE,165,11.0,14.0,73,0.00,,,0.38,weatherlink.com 1.10,2013-05-30 03:43:00,
2013-05-29 22:58:00,73.5,64.0,29.89,South,173,10.0,17.0,73,0.00,,,0.38,weatherlink.com 1.10,2013-05-30 03:58:00,
2013-05-29 23:13:00,73.3,65.0,29.89,South,190,10.0,16.0,74,0.00,,,0.38,weatherlink.com 1.10,2013-05-30 04:13:00,
2013-05-29 23:28:00,73.3,65.0,29.89,South,190,9.0,19.0,75,0.00,,,0.38,weatherlink.com 1.10,2013-05-30 04:28:00,
2013-05-29 23:43:00,73.7,65.0,29.90,South,175,7.0,19.0,75,0.00,,,0.38,weatherlink.com 1.10,2013-05-30 04:43:00,
2013-05-29 23:58:00,73.3,65.0,29.91,SSW,202,12.0,21.0,76,0.00,,,0.00,weatherlink.com 1.10,2013-05-30 04:58:00,